createdAt,value
2022-08-31T00:01:20.683Z,81.17
2022-08-31T00:04:16.312Z,81.56
2022-08-31T00:06:42.796Z,81.83
2022-08-31T00:09:09.331Z,81.82
2022-08-31T00:11:36.220Z,82.09
2022-08-31T00:14:07.713Z,82.70
2022-08-31T00:16:43.379Z,82.82
2022-08-31T00:19:10.920Z,82.52
2022-08-31T00:21:39.105Z,82.65
2022-08-31T00:24:05.908Z,83.12
2022-08-31T00:26:32.728Z,82.89
2022-08-31T00:28:59.299Z,82.73
2022-08-31T00:31:25.844Z,83.00
2022-08-31T00:33:52.391Z,83.16
2022-08-31T00:36:22.112Z,83.31
2022-08-31T00:38:49.537Z,83.28
2022-08-31T00:41:19.678Z,83.34
2022-08-31T00:43:52.063Z,83.42
2022-08-31T00:46:22.992Z,83.32
2022-08-31T00:49:08.182Z,83.99
2022-08-31T00:51:41.438Z,83.41
2022-08-31T00:54:11.982Z,83.66
2022-08-31T00:56:40.960Z,83.46
2022-08-31T00:59:07.530Z,83.55
2022-08-31T01:01:34.712Z,83.46
2022-08-31T01:04:01.332Z,83.75
2022-08-31T01:06:28.002Z,84.27
2022-08-31T01:08:57.471Z,84.03
2022-08-31T01:11:24.663Z,83.74
2022-08-31T01:13:51.543Z,83.84
2022-08-31T01:16:25.540Z,84.21
2022-08-31T01:18:54.315Z,84.11
2022-08-31T01:21:26.391Z,84.91
2022-08-31T01:23:56.944Z,84.83
2022-08-31T01:26:26.801Z,84.58
2022-08-31T01:28:57.348Z,84.51
2022-08-31T01:31:38.343Z,85.21
2022-08-31T01:34:05.187Z,84.67
2022-08-31T01:36:34.282Z,84.53
2022-08-31T01:39:00.735Z,84.61
2022-08-31T01:41:27.360Z,84.90
2022-08-31T01:43:54.596Z,84.82
2022-08-31T01:46:21.673Z,85.08
2022-08-31T01:48:49.214Z,85.57
2022-08-31T01:51:18.547Z,85.74
2022-08-31T01:53:48.650Z,85.72
2022-08-31T01:56:18.526Z,85.48
2022-08-31T01:58:45.277Z,85.35
2022-08-31T02:01:17.286Z,85.37
2022-08-31T02:03:59.394Z,84.63
2022-08-31T02:06:26.307Z,84.87
2022-08-31T02:08:53.271Z,84.97
2022-08-31T02:11:19.788Z,85.09
2022-08-31T02:13:46.227Z,84.98
2022-08-31T02:16:12.764Z,85.54
2022-08-31T02:18:39.276Z,85.38
2022-08-31T02:21:06.071Z,85.54
2022-08-31T02:23:32.839Z,84.83
2022-08-31T02:25:59.854Z,85.34
2022-08-31T02:28:26.805Z,85.32
2022-08-31T02:30:53.310Z,85.54
2022-08-31T02:33:20.009Z,85.08
2022-08-31T02:35:46.545Z,84.85
2022-08-31T02:38:16.719Z,84.68
2022-08-31T02:40:45.031Z,84.98
2022-08-31T02:43:16.098Z,84.88
2022-08-31T02:45:55.722Z,85.12
2022-08-31T02:48:22.463Z,85.08
2022-08-31T02:50:51.428Z,85.65
2022-08-31T02:53:21.831Z,85.74
2022-08-31T02:55:48.986Z,85.77
2022-08-31T02:58:19.592Z,85.97
2022-08-31T03:00:48.789Z,86.59
2022-08-31T03:03:15.457Z,86.55
2022-08-31T03:05:42.381Z,86.43
2022-08-31T03:08:09.323Z,86.51
2022-08-31T03:10:36.081Z,86.39
2022-08-31T03:13:02.922Z,86.09
2022-08-31T03:15:29.971Z,85.76
2022-08-31T03:17:56.669Z,86.02
2022-08-31T03:20:25.341Z,86.20
2022-08-31T03:22:51.840Z,85.54
2022-08-31T03:25:19.793Z,85.79
2022-08-31T03:27:46.286Z,85.89
2022-08-31T03:30:15.715Z,85.99
2022-08-31T03:32:42.627Z,85.92
2022-08-31T03:35:09.312Z,85.65
2022-08-31T03:37:35.923Z,85.53
2022-08-31T03:40:02.774Z,85.35
2022-08-31T03:42:29.351Z,85.52
2022-08-31T03:44:58.609Z,85.44
2022-08-31T03:47:25.180Z,85.32
2022-08-31T03:49:54.956Z,85.58
2022-08-31T03:52:21.955Z,85.68
2022-08-31T03:54:49.398Z,85.84
2022-08-31T03:57:15.914Z,85.65
2022-08-31T03:59:42.453Z,85.79
2022-08-31T04:02:08.918Z,85.74
2022-08-31T04:04:35.460Z,85.64
2022-08-31T04:07:01.997Z,85.61
2022-08-31T04:09:28.966Z,85.73
2022-08-31T04:11:55.686Z,85.75
2022-08-31T04:14:22.227Z,85.64
2022-08-31T04:16:48.847Z,85.99
2022-08-31T04:19:16.724Z,85.88
2022-08-31T04:21:44.483Z,85.81
2022-08-31T04:24:11.990Z,85.94
2022-08-31T04:26:40.540Z,85.53
2022-08-31T04:29:12.368Z,86.06
2022-08-31T04:31:39.710Z,86.10
2022-08-31T04:34:06.328Z,86.09
2022-08-31T04:36:33.306Z,86.06
2022-08-31T04:39:02.857Z,86.25
2022-08-31T04:41:31.776Z,86.38
2022-08-31T04:44:00.577Z,86.41
2022-08-31T04:46:28.990Z,85.82
2022-08-31T04:48:56.726Z,86.13
2022-08-31T04:51:28.622Z,86.61
2022-08-31T04:53:56.182Z,86.73
2022-08-31T04:56:30.643Z,87.42
2022-08-31T04:59:00.493Z,86.88
2022-08-31T05:01:29.540Z,86.79
2022-08-31T05:04:06.967Z,87.15
2022-08-31T05:06:35.765Z,87.11
2022-08-31T05:09:06.051Z,87.09
2022-08-31T05:11:33.095Z,87.04
2022-08-31T05:14:01.957Z,86.67
2022-08-31T05:16:30.703Z,87.12
2022-08-31T05:18:58.986Z,87.49
2022-08-31T05:21:29.508Z,87.61
2022-08-31T05:23:58.762Z,87.83
2022-08-31T05:26:30.279Z,88.29
2022-08-31T05:28:59.165Z,88.33
2022-08-31T05:31:29.923Z,88.51
2022-08-31T05:33:58.181Z,88.54
2022-08-31T05:36:25.664Z,89.11
2022-08-31T05:38:56.558Z,89.14
2022-08-31T05:41:28.168Z,89.39
2022-08-31T05:43:54.661Z,89.84
2022-08-31T05:46:21.091Z,89.88
2022-08-31T05:48:49.441Z,90.39
2022-08-31T05:51:18.201Z,90.67
2022-08-31T05:53:45.762Z,91.31
2022-08-31T05:56:19.193Z,92.33
2022-08-31T05:58:46.789Z,92.29
2022-08-31T06:01:19.249Z,92.75
2022-08-31T06:03:46.898Z,92.76
2022-08-31T06:06:14.455Z,92.97
2022-08-31T06:08:41.777Z,93.08
2022-08-31T06:11:14.357Z,93.30
2022-08-31T06:13:41.889Z,93.59
2022-08-31T06:16:10.012Z,93.93
2022-08-31T06:18:38.566Z,94.48
2022-08-31T06:21:09.041Z,94.88
2022-08-31T06:23:42.424Z,95.23
2022-08-31T06:26:13.516Z,95.15
2022-08-31T06:28:40.881Z,94.81
2022-08-31T06:31:12.749Z,94.59
2022-08-31T06:33:40.200Z,94.00
2022-08-31T06:36:14.787Z,93.53
2022-08-31T06:38:43.393Z,92.59
2022-08-31T06:41:17.774Z,91.95
2022-08-31T06:43:45.633Z,90.77
2022-08-31T06:46:14.192Z,89.80
2022-08-31T06:48:41.668Z,89.17
2022-08-31T06:51:09.508Z,88.03
2022-08-31T06:53:40.408Z,86.97
2022-08-31T06:56:20.309Z,84.99
2022-08-31T06:58:53.727Z,83.34
2022-08-31T07:01:36.135Z,82.01
2022-08-31T07:04:07.304Z,79.93
2022-08-31T07:06:39.496Z,78.31
2022-08-31T07:09:08.780Z,77.22
2022-08-31T07:11:43.550Z,76.17
2022-08-31T07:14:13.062Z,74.61
2022-08-31T07:16:39.890Z,73.26
2022-08-31T07:19:07.479Z,72.82
2022-08-31T07:21:39.751Z,71.52
2022-08-31T07:24:07.522Z,69.54
2022-08-31T07:26:46.294Z,69.65
2022-08-31T07:29:14.943Z,68.24
2022-08-31T07:31:46.459Z,68.71
2022-08-31T07:34:20.595Z,68.71
2022-08-31T07:37:06.433Z,67.61
2022-08-31T07:39:53.592Z,67.25
2022-08-31T07:42:24.890Z,67.23
2022-08-31T07:44:53.842Z,66.89
2022-08-31T07:47:22.580Z,67.21
2022-08-31T07:49:52.625Z,66.66
2022-08-31T07:52:25.523Z,66.25
2022-08-31T07:54:54.430Z,65.62
2022-08-31T07:57:25.720Z,63.87
2022-08-31T08:00:09.004Z,64.67
2022-08-31T08:02:39.866Z,64.12
2022-08-31T08:05:09.359Z,63.02
2022-08-31T08:07:37.412Z,63.32
2022-08-31T08:10:07.460Z,62.97
2022-08-31T08:12:36.341Z,62.46
2022-08-31T08:15:06.565Z,63.29
2022-08-31T08:17:33.815Z,62.79
2022-08-31T08:20:00.931Z,61.37
2022-08-31T08:22:50.787Z,62.88
2022-08-31T08:25:16.675Z,62.41
2022-08-31T08:27:43.535Z,61.72
2022-08-31T08:30:15.895Z,60.93
2022-08-31T08:32:42.944Z,60.38
2022-08-31T08:35:11.027Z,60.04
2022-08-31T08:37:57.934Z,58.92
2022-08-31T08:40:42.367Z,59.41
2022-08-31T08:43:12.939Z,58.64
2022-08-31T08:45:40.226Z,57.17
2022-08-31T08:48:09.339Z,57.71
2022-08-31T08:50:38.903Z,57.50
2022-08-31T08:53:10.589Z,56.93
2022-08-31T08:55:40.117Z,57.08
2022-08-31T08:58:10.560Z,56.26
2022-08-31T09:00:46.593Z,54.50
2022-08-31T09:03:30.812Z,55.49
2022-08-31T09:06:12.779Z,54.12
2022-08-31T09:09:18.149Z,54.16
2022-08-31T09:12:11.403Z,53.21
2022-08-31T09:14:53.559Z,53.97
2022-08-31T09:17:59.618Z,53.96
2022-08-31T09:20:28.183Z,51.02
2022-08-31T09:22:57.260Z,50.38
2022-08-31T09:25:32.739Z,48.42
2022-08-31T09:28:07.428Z,47.70
2022-08-31T09:30:40.017Z,45.32
2022-08-31T09:33:07.622Z,44.10
2022-08-31T09:35:41.226Z,42.34
2022-08-31T09:38:11.283Z,42.64
2022-08-31T09:40:49.801Z,43.54
2022-08-31T09:43:41.181Z,42.89
2022-08-31T09:46:09.649Z,40.35
2022-08-31T09:48:58.372Z,40.56
2022-08-31T09:51:33.846Z,38.30
2022-08-31T09:54:25.486Z,38.24
2022-08-31T09:56:56.382Z,37.33
2022-08-31T09:59:41.972Z,36.88
2022-08-31T10:02:13.290Z,36.64
2022-08-31T10:04:55.007Z,38.84
2022-08-31T10:07:37.651Z,36.21
2022-08-31T10:10:30.454Z,35.00
2022-08-31T10:13:01.553Z,33.99
2022-08-31T10:15:36.687Z,33.87
2022-08-31T10:18:14.052Z,34.54
2022-08-31T10:20:46.506Z,33.85
2022-08-31T10:23:19.204Z,34.78
2022-08-31T10:25:52.671Z,31.64
2022-08-31T10:28:36.581Z,33.20
2022-08-31T10:31:10.209Z,31.77
2022-08-31T10:34:05.945Z,30.98
2022-08-31T10:36:37.681Z,30.22
2022-08-31T10:39:29.106Z,31.04
2022-08-31T10:41:55.925Z,30.32
2022-08-31T10:44:36.717Z,31.94
2022-08-31T10:47:05.777Z,30.63
2022-08-31T10:49:35.417Z,30.84
2022-08-31T10:52:18.316Z,31.94
2022-08-31T10:55:06.806Z,32.59
2022-08-31T10:57:49.685Z,31.88
2022-08-31T11:00:41.401Z,30.89
2022-08-31T11:03:35.398Z,32.01
2022-08-31T11:06:30.902Z,32.27
2022-08-31T11:09:22.126Z,31.63
2022-08-31T11:12:13.539Z,32.94
2022-08-31T11:15:12.091Z,32.72
2022-08-31T11:17:50.172Z,32.32
2022-08-31T11:20:22.553Z,31.77
2022-08-31T11:23:05.570Z,31.53
2022-08-31T11:25:50.650Z,32.30
2022-08-31T11:28:32.830Z,32.23
2022-08-31T11:31:01.804Z,31.90
2022-08-31T11:33:31.222Z,32.25
2022-08-31T11:36:10.003Z,32.26
2022-08-31T11:38:53.343Z,32.63
2022-08-31T11:41:33.579Z,33.00
2022-08-31T11:44:04.583Z,32.14
2022-08-31T11:46:34.038Z,32.95
2022-08-31T11:49:00.671Z,32.37
2022-08-31T11:51:38.617Z,31.95
2022-08-31T11:54:14.780Z,33.10
2022-08-31T11:56:45.624Z,31.78
2022-08-31T11:59:40.005Z,33.14
2022-08-31T12:02:22.918Z,32.56
2022-08-31T12:04:52.252Z,30.88
2022-08-31T12:07:28.264Z,31.19
2022-08-31T12:10:14.840Z,30.96
2022-08-31T12:13:09.363Z,30.94
2022-08-31T12:15:55.213Z,29.01
2022-08-31T12:18:49.621Z,29.82
2022-08-31T12:22:02.817Z,30.17
2022-08-31T12:25:01.962Z,31.02
2022-08-31T12:27:38.649Z,32.25
2022-08-31T12:30:31.383Z,31.78
2022-08-31T12:33:04.205Z,30.81
2022-08-31T12:35:32.820Z,33.13
2022-08-31T12:38:02.839Z,32.81
2022-08-31T12:40:33.738Z,31.24
2022-08-31T12:43:06.405Z,31.36
2022-08-31T12:45:35.806Z,30.71
2022-08-31T12:48:23.435Z,30.86
2022-08-31T12:51:03.945Z,32.50
2022-08-31T12:53:44.283Z,30.64
2022-08-31T12:56:25.952Z,30.46
2022-08-31T12:59:11.064Z,31.43
2022-08-31T13:01:45.440Z,30.94
2022-08-31T13:04:15.686Z,31.19
2022-08-31T13:06:45.146Z,29.02
2022-08-31T13:09:23.983Z,29.61
2022-08-31T13:11:53.249Z,29.17
2022-08-31T13:14:26.925Z,29.66
2022-08-31T13:16:56.274Z,27.69
2022-08-31T13:19:27.374Z,28.82
2022-08-31T13:22:07.384Z,29.67
2022-08-31T13:24:41.296Z,28.55
2022-08-31T13:27:09.718Z,28.92
2022-08-31T13:29:44.161Z,28.65
2022-08-31T13:32:30.717Z,28.58
2022-08-31T13:35:04.155Z,26.29
2022-08-31T13:37:37.759Z,26.88
2022-08-31T13:40:10.564Z,28.16
2022-08-31T13:42:42.765Z,26.69
2022-08-31T13:45:27.336Z,27.33
2022-08-31T13:47:58.277Z,25.95
2022-08-31T13:50:32.889Z,26.36
2022-08-31T13:53:25.955Z,25.23
2022-08-31T13:55:50.374Z,25.07
2022-08-31T13:58:43.183Z,27.23
2022-08-31T14:01:25.136Z,26.63
2022-08-31T14:03:59.176Z,27.32
2022-08-31T14:06:29.676Z,27.13
2022-08-31T14:09:16.556Z,27.20
2022-08-31T14:11:53.270Z,27.78
2022-08-31T14:14:39.839Z,27.73
2022-08-31T14:17:08.406Z,27.12
2022-08-31T14:19:39.321Z,27.80
2022-08-31T14:22:32.389Z,28.59
2022-08-31T14:25:00.665Z,27.26
2022-08-31T14:27:29.091Z,28.95
2022-08-31T14:29:55.817Z,30.28
2022-08-31T14:32:22.715Z,30.03
2022-08-31T14:34:50.995Z,31.04
2022-08-31T14:37:29.925Z,32.24
2022-08-31T14:40:07.485Z,32.25
2022-08-31T14:42:37.546Z,30.77
2022-08-31T14:45:08.268Z,30.30
2022-08-31T14:47:43.893Z,30.38
2022-08-31T14:50:13.296Z,30.77
2022-08-31T14:52:44.835Z,29.62
2022-08-31T14:55:13.804Z,29.77
2022-08-31T14:57:43.844Z,31.39
2022-08-31T15:00:15.040Z,30.27
2022-08-31T15:02:42.009Z,29.28
2022-08-31T15:05:09.787Z,30.41
2022-08-31T15:07:39.192Z,28.39
2022-08-31T15:10:07.953Z,28.69
2022-08-31T15:12:35.366Z,27.64
2022-08-31T15:15:01.864Z,26.43
2022-08-31T15:17:30.295Z,27.03
2022-08-31T15:19:57.324Z,26.67
2022-08-31T15:22:26.388Z,26.61
2022-08-31T15:24:54.346Z,28.05
2022-08-31T15:27:22.457Z,28.07
2022-08-31T15:29:51.701Z,27.24
2022-08-31T15:32:18.767Z,27.37
2022-08-31T15:34:53.444Z,27.30
2022-08-31T15:37:21.417Z,28.40
2022-08-31T15:39:49.297Z,29.09
2022-08-31T15:42:20.872Z,28.59
2022-08-31T15:44:55.984Z,30.15
2022-08-31T15:47:47.019Z,28.10
2022-08-31T15:50:19.336Z,28.96
2022-08-31T15:52:51.628Z,27.49
2022-08-31T15:55:23.174Z,27.25
2022-08-31T15:57:49.886Z,26.87
2022-08-31T16:00:16.372Z,27.41
2022-08-31T16:02:44.256Z,28.15
2022-08-31T16:05:12.583Z,27.90
2022-08-31T16:07:40.311Z,26.99
2022-08-31T16:10:19.823Z,27.20
2022-08-31T16:12:46.731Z,27.48
2022-08-31T16:15:15.782Z,28.30
2022-08-31T16:17:42.895Z,27.92
2022-08-31T16:20:11.820Z,28.44
2022-08-31T16:22:39.058Z,28.46
2022-08-31T16:25:06.760Z,27.91
2022-08-31T16:27:37.737Z,26.97
2022-08-31T16:30:04.641Z,27.09
2022-08-31T16:32:31.161Z,28.33
2022-08-31T16:34:58.311Z,27.66
2022-08-31T16:37:25.175Z,29.51
2022-08-31T16:39:51.871Z,29.79
2022-08-31T16:42:18.426Z,29.53
2022-08-31T16:44:46.934Z,30.88
2022-08-31T16:47:16.926Z,30.22
2022-08-31T16:49:44.009Z,31.51
2022-08-31T16:52:26.574Z,31.82
2022-08-31T16:54:55.926Z,31.88
2022-08-31T16:57:28.276Z,32.54
2022-08-31T16:59:56.985Z,33.10
2022-08-31T17:02:24.634Z,33.35
2022-08-31T17:04:53.419Z,32.83
2022-08-31T17:07:23.084Z,34.98
2022-08-31T17:09:50.086Z,34.36
2022-08-31T17:12:20.577Z,34.89
2022-08-31T17:14:51.346Z,36.45
2022-08-31T17:17:21.837Z,37.24
2022-08-31T17:19:49.852Z,36.51
2022-08-31T17:22:25.815Z,36.70
2022-08-31T17:24:56.723Z,37.90
2022-08-31T17:27:24.506Z,37.80
2022-08-31T17:29:52.695Z,38.58
2022-08-31T17:32:23.253Z,39.08
2022-08-31T17:34:51.578Z,38.31
2022-08-31T17:37:32.420Z,38.89
2022-08-31T17:39:59.413Z,38.94
2022-08-31T17:42:26.951Z,40.31
2022-08-31T17:44:54.463Z,38.86
2022-08-31T17:47:23.278Z,39.44
2022-08-31T17:49:51.167Z,39.74
2022-08-31T17:52:20.341Z,40.95
2022-08-31T17:54:46.966Z,39.69
2022-08-31T17:57:16.471Z,39.69
2022-08-31T17:59:46.440Z,40.24
2022-08-31T18:02:17.430Z,40.31
2022-08-31T18:04:44.444Z,40.63
2022-08-31T18:07:11.734Z,40.85
2022-08-31T18:09:40.982Z,41.78
2022-08-31T18:12:08.686Z,41.78
2022-08-31T18:14:37.972Z,42.19
2022-08-31T18:17:08.121Z,42.74
2022-08-31T18:19:34.699Z,41.39
2022-08-31T18:22:02.126Z,43.32
2022-08-31T18:24:34.045Z,43.66
2022-08-31T18:27:03.837Z,44.32
2022-08-31T18:29:34.148Z,44.70
2022-08-31T18:32:05.224Z,45.16
2022-08-31T18:34:35.410Z,45.56
2022-08-31T18:37:02.300Z,45.96
2022-08-31T18:39:51.234Z,46.60
2022-08-31T18:42:38.342Z,47.23
2022-08-31T18:45:20.764Z,47.23
2022-08-31T18:48:20.769Z,47.54
2022-08-31T18:50:45.113Z,47.95
2022-08-31T18:53:15.608Z,48.19
2022-08-31T18:55:42.845Z,48.92
2022-08-31T18:58:10.114Z,48.96
2022-08-31T19:00:37.143Z,48.77
2022-08-31T19:03:04.117Z,49.06
2022-08-31T19:05:32.510Z,50.26
2022-08-31T19:08:00.342Z,49.97
2022-08-31T19:10:27.532Z,50.49
2022-08-31T19:12:57.123Z,50.57
2022-08-31T19:15:35.857Z,51.86
2022-08-31T19:18:05.250Z,51.60
2022-08-31T19:20:33.447Z,51.75
2022-08-31T19:23:00.458Z,52.30
2022-08-31T19:25:27.802Z,52.60
2022-08-31T19:27:55.692Z,53.07
2022-08-31T19:30:27.892Z,53.55
2022-08-31T19:32:56.141Z,53.43
2022-08-31T19:35:22.754Z,53.99
2022-08-31T19:37:51.822Z,54.60
2022-08-31T19:40:19.139Z,54.53
2022-08-31T19:45:45.080Z,55.18
2022-08-31T19:48:12.531Z,55.66
2022-08-31T19:50:41.900Z,55.93
2022-08-31T19:53:12.037Z,56.19
2022-08-31T19:55:50.145Z,56.24
2022-08-31T19:58:18.222Z,57.09
2022-08-31T20:00:44.810Z,57.50
2022-08-31T20:03:14.964Z,54.25
2022-08-31T20:05:42.007Z,57.48
2022-08-31T20:08:08.683Z,58.01
2022-08-31T20:10:39.927Z,58.66
2022-08-31T20:13:07.275Z,58.75
2022-08-31T20:15:37.865Z,59.31
2022-08-31T20:18:05.885Z,59.74
2022-08-31T20:20:36.031Z,60.15
2022-08-31T20:23:03.318Z,60.47
2022-08-31T20:25:29.894Z,60.46
2022-08-31T20:27:57.538Z,61.06
2022-08-31T20:30:23.932Z,61.51
2022-08-31T20:32:50.378Z,62.15
2022-08-31T20:35:18.239Z,62.24
2022-08-31T20:37:44.839Z,62.38
2022-08-31T20:40:16.792Z,63.15
2022-08-31T20:42:43.329Z,63.03
2022-08-31T20:45:10.006Z,63.54
2022-08-31T20:47:55.219Z,63.63
2022-08-31T20:50:21.694Z,63.83
2022-08-31T20:52:48.124Z,64.10
2022-08-31T20:55:14.593Z,64.56
2022-08-31T20:57:41.060Z,64.61
2022-08-31T21:00:10.237Z,64.68
2022-08-31T21:02:39.653Z,65.27
2022-08-31T21:05:36.646Z,65.24
2022-08-31T21:07:57.761Z,65.70
2022-08-31T21:10:37.125Z,65.88
2022-08-31T21:13:10.316Z,66.38
2022-08-31T21:15:45.308Z,66.98
2022-08-31T21:18:17.555Z,66.92
2022-08-31T21:20:46.118Z,67.10
2022-08-31T21:23:13.445Z,67.60
2022-08-31T21:25:43.836Z,68.03
2022-08-31T21:28:16.982Z,68.02
2022-08-31T21:30:45.309Z,68.46
2022-08-31T21:33:11.879Z,69.27
2022-08-31T21:35:38.415Z,69.51
2022-08-31T21:38:04.944Z,69.39
2022-08-31T21:40:31.445Z,69.92
2022-08-31T21:42:58.335Z,69.84
2022-08-31T21:45:25.215Z,70.29
2022-08-31T21:47:51.742Z,70.64
2022-08-31T21:50:18.276Z,71.24
2022-08-31T21:52:44.715Z,71.23
2022-08-31T21:55:13.589Z,71.39
2022-08-31T21:57:40.786Z,71.62
2022-08-31T22:00:13.665Z,71.85
2022-08-31T22:02:45.289Z,72.04
2022-08-31T22:05:13.239Z,72.01
2022-08-31T22:07:40.061Z,72.16
2022-08-31T22:10:07.407Z,72.61
2022-08-31T22:12:34.211Z,72.67
2022-08-31T22:15:05.235Z,73.55
2022-08-31T22:17:55.745Z,73.19
2022-08-31T22:20:19.898Z,73.48
2022-08-31T22:22:46.933Z,73.68
2022-08-31T22:25:13.710Z,74.51
2022-08-31T22:27:40.165Z,74.10
2022-08-31T22:30:07.317Z,74.51
2022-08-31T22:32:34.018Z,74.72
2022-08-31T22:35:01.126Z,74.57
2022-08-31T22:37:27.604Z,74.69
2022-08-31T22:39:54.973Z,75.23
2022-08-31T22:42:21.423Z,75.14
2022-08-31T22:44:48.099Z,75.43
2022-08-31T22:47:14.647Z,75.74
2022-08-31T22:49:41.041Z,76.04
2022-08-31T22:52:07.589Z,76.28
2022-08-31T22:54:35.242Z,76.02
2022-08-31T22:57:01.799Z,76.75
2022-08-31T22:59:28.603Z,76.29
2022-08-31T23:02:03.208Z,76.97
2022-08-31T23:04:33.308Z,76.63
2022-08-31T23:07:01.423Z,76.80
2022-08-31T23:09:30.843Z,77.62
2022-08-31T23:11:59.935Z,77.12
2022-08-31T23:14:27.674Z,77.60
2022-08-31T23:17:00.681Z,77.93
2022-08-31T23:19:36.575Z,78.38
2022-08-31T23:22:09.126Z,78.42
2022-08-31T23:24:46.291Z,78.41
2022-08-31T23:27:15.174Z,78.49
2022-08-31T23:29:48.048Z,79.02
2022-08-31T23:32:18.046Z,78.76
2022-08-31T23:34:46.585Z,79.15
2022-08-31T23:37:14.212Z,79.04
2022-08-31T23:39:45.888Z,79.19
2022-08-31T23:42:15.161Z,79.33
2022-08-31T23:44:43.963Z,79.44
2022-08-31T23:47:17.004Z,80.14
2022-08-31T23:49:45.807Z,80.33
2022-08-31T23:52:18.849Z,79.90
2022-08-31T23:54:49.449Z,80.55
2022-08-31T23:57:32.758Z,80.35
